Carlsborg, Washington
Current Conditions -  °F | °C
As of 5:53 AM on Thursday 30 Oct 2014 (Local Time) from KCLM Reporting Station
Overcast Overcast  
Wind Chill: 10°   Ceiling: 500
Heat Index: 10°   Visibility: 10mi
Dew Point:   Wind: 0mph
Humidity: 96%   Direction: NA
Pressure: 29.86"   Gusts: NA
Location:  48.09°N, 123.17°W
Report Text: KCLM 301253Z AUTO 00000KT 10SM OVC005 10/09 A2986 RMK AO2 SLP113 T01000094 $
Loading
Personal Weather Stations






























Interactive Weather Map
Tropical Storm Tracking
New forecast layout! Learn more

10-Day Weather Forecast

Advertisements
Track Severe Weather on mobile